Racecast

Hoosier Crossroads Conference

White River Elementary · 5000m · Boys · Junior Varsity · 2022-09-24 · IN

Course difficulty: -0.2%i

Race-day weather: 62°F · wind 41 mph · humidity 68% · rain before the race

View full meet →

Team scores

Place Team Points 12345 67
1 Fishers (IN) 41 6 7 8 9 11 15 30
2 Hamilton Southeastern (IN) 48 1 3 13 14 17 18 34
3 Zionsville (IN) 86 10 12 20 21 23 25 26
4 Franklin Central (IN) 93 2 4 22 28 37 38 51
5 Brownsburg (IN) 116 5 16 29 31 35 43 46
6 Noblesville (IN) 161 24 27 33 36 41 44 45
7 Westfield (IN) 178 19 32 39 40 48 49 50
8 Avon (IN) 248 42 47 52 53 54 55 56

As scored by the meet.

Results

Place Athlete Grade School Time Ratingi Points
1 Tate Watson 10 Hamilton Southeastern (IN) 1 16:40.4 PR 123.7 1
2 Deacon Hall 12 Franklin Central (IN) 1 16:46 PR 123.0 2
3 Joshua Montgomery 9 Hamilton Southeastern (IN) 2 16:48.1 PR 122.7 3
4 Owen Lackey 12 Franklin Central (IN) 2 16:51.7 PR 122.3 4
5 Joseph Kerzee 10 Brownsburg (IN) 1 16:57 PR 121.6 5
6 Jaden Guffey 11 Fishers (IN) 1 16:59 PR 121.4 6
7 Henry Wood 10 Fishers (IN) 2 17:00.9 PR 121.2 7
8 Grant Belush 12 Fishers (IN) 3 17:06.3 PR 120.5 8
9 Cooper Mohr 10 Fishers (IN) 4 17:06.9 PR 120.5 9
10 Michael Schilson 11 Zionsville (IN) 1 17:07.2 SR 120.4 10
11 Tommy Clark 12 Fishers (IN) 5 17:12.9 PR 119.8 11
12 Joseph Spees 11 Zionsville (IN) 2 17:13.2 119.7 12
13 Riley Schamp 9 Hamilton Southeastern (IN) 3 17:14.2 PR 119.6 13
14 Truman Cluff 12 Hamilton Southeastern (IN) 4 17:18.9 PR 119.1 14
15 Dylan Wolf 10 Fishers (IN) 6 17:19.2 PR 119.0 15
16 Paul Cormany 11 Brownsburg (IN) 2 17:22.2 PR 118.7 16
17 Deagan Baker 10 Hamilton Southeastern (IN) 5 17:22.6 PR 118.7 17
18 Brayden Gebhard 11 Hamilton Southeastern (IN) 6 17:22.9 SR 118.6 18
19 Taye Gutwein 9 Westfield (NJ) 1 17:23.3 PR 118.6 19
20 Charles Fisher 12 Zionsville (IN) 3 17:23.7 PR 118.5 20
21 Camden Stockwell 10 Zionsville (IN) 4 17:25.9 PR 118.3 21
22 Alex Forey 12 Franklin Central (IN) 3 17:27.7 PR 118.1 22
23 Jackson Nobbe 9 Zionsville (IN) 5 17:28.3 118.0 23
24 Jackson Umthum 10 Noblesville (IN) 1 17:32.2 117.6 24
25 Brayden Kenworthy 12 Zionsville (IN) 6 17:35.6 PR 117.2 25
26 Grant Gogis 11 Zionsville (IN) 7 17:36.3 PR 117.1 26
27 Grant Cummings 11 Noblesville (IN) 2 17:37.4 PR 117.0 27
28 Jude Watters 12 Zionsville (IN) 8 17:38.3 SR 116.9
29 Jonathan Reid 12 Franklin Central (IN) 4 17:38.5 PR 28
30 Eli Grant 11 Brownsburg (IN) 3 17:38.7 PR 116.8 29
31 John Myers 12 Fishers (IN) 7 17:39.6 SR 116.8 30
32 Josh Waggoner 11 Brownsburg (IN) 4 17:40.7 SR 116.6 31
33 Owen Ferreri 11 Westfield (NJ) 2 17:43 SR 116.4 32
34 Jack Shinneman 10 Noblesville (IN) 3 17:43.8 116.3 33
35 Jack Mybeck 10 Zionsville (IN) 9 17:44.3 PR 116.2
36 William Henning 9 Hamilton Southeastern (IN) 7 17:44.3 PR 116.2 34
37 Aidan Lawson 10 Hamilton Southeastern (IN) 8 17:45 PR 116.2
38 Tristan Krizan 12 Brownsburg (IN) 5 17:45.3 SR 116.1 35
39 Carter Pritchett 12 Fishers (IN) 8 17:45.4 SR 116.1
40 Hans Moore 11 Fishers (IN) 9 17:45.5 PR 116.1
41 Wade Hillman-Strabbing 12 Fishers (IN) 10 17:45.6 PR 116.1
42 Gavin McGormley 9 Zionsville (IN) 10 17:46.1 PR 116.0
43 Andrew Voight 9 Hamilton Southeastern (IN) 9 17:47.6 PR 115.9
44 Declan Mohr 9 Fishers (IN) 11 17:48.1 PR 115.8
45 Oscar Moosbrugger 11 Zionsville (IN) 11 17:48.2 PR 115.8
46 Cooper Click 9 Noblesville (IN) 4 17:48.4 PR 115.8 36
47 Nolan White 10 Zionsville (IN) 12 17:49.4 115.7
48 Nolan Toney 11 Zionsville (IN) 13 17:49.6 PR 115.7
49 Sam Pridemore 10 Hamilton Southeastern (IN) 10 17:54.1 PR 115.2
50 Andrew Wright 9 Franklin Central (IN) 5 17:54.2 PR 115.2 37
51 Quinton Weflen 12 Franklin Central (IN) 6 17:54.2 115.2 38
52 Charlie Naas 10 Westfield (NJ) 3 17:55.2 PR 115.0 39
53 Carson Goodman 12 Westfield (NJ) 4 17:55.5 PR 115.0 40
54 Simon Adams 12 Noblesville (IN) 5 17:56.4 SR 114.9 41
55 Christopher Wilcox 10 Hamilton Southeastern (IN) 11 17:56.9 PR 114.9
56 Micah Young 12 Fishers (IN) 12 17:57.4 SR 114.8
57 Gavin Thornberry 10 Avon (IN) 1 17:58.5 114.7 42
58 Colin Brier 12 Hamilton Southeastern (IN) 12 17:59.5 PR 114.6
59 Keegan Bowling 11 Brownsburg (IN) 6 17:59.6 PR 43
60 J.D. Wax 12 Noblesville (IN) 6 18:00.1 PR 114.5 44
61 Luke Godleski 12 Fishers (IN) 13 18:00.4 SR 114.5
62 Luke Bodinus 10 Noblesville (IN) 7 18:00.5 SR 114.5 45
63 Luke Conrad 9 Noblesville (IN) 8 18:04.1 PR 114.1
64 Brady Barnes 12 Noblesville (IN) 9 18:04.3 PR 114.1
65 Will Moser 11 Brownsburg (IN) 7 18:04.8 PR 114.0 46
66 Niyan Patel 12 Zionsville (IN) 14 18:05 PR 114.0
67 Noah Berg 10 Zionsville (IN) 15 18:06.6 PR 113.8
68 Nate Wigger 11 Avon (IN) 2 18:07.4 SR 113.8 47
69 Jonathan Albright 10 Fishers (IN) 14 18:07.5 PR 113.8
70 Bradyn Livingston 10 Noblesville (IN) 10 18:08.9 SR 113.6
71 Stephen Breck 11 Fishers (IN) 15 18:09.5 PR 113.5
72 Grayson Matthews 10 Fishers (IN) 16 18:09.6 PR 113.5
73 Joel Albrecht 12 Zionsville (IN) 16 18:11.1 PR 113.4
74 Luke Sullivan 12 Westfield (NJ) 5 18:12.7 PR 113.2 48
75 Logan Gogis 11 Zionsville (IN) 17 18:14 PR 113.1
76 Evan Wiesler 11 Zionsville (IN) 18 18:14 PR 113.1
77 Luke Walters 10 Hamilton Southeastern (IN) 13 18:14.4 PR 113.0
78 Soren Johnson 9 Zionsville (IN) 19 18:14.9 PR 113.0
79 Ryan Luke 12 Zionsville (IN) 20 18:16.8 SR 112.8
80 Porter Temples 10 Westfield (NJ) 6 18:16.9 PR 112.8 49
81 Mike Dowd 11 Fishers (IN) 17 18:18.8 PR 112.6
82 Paul Williams 11 Westfield (NJ) 7 18:22 PR 112.2 50
83 Ryan Lange 9 Zionsville (IN) 21 18:22.1 PR 112.2
84 Isaac Vivo 11 Franklin Central (IN) 7 18:22.2 PR 112.2 51
85 Joshua Nugent 9 Brownsburg (IN) 8 18:23 PR 112.2
86 Benjamin Butler 12 Hamilton Southeastern (IN) 14 18:23.4 PR 112.1
87 Dylan Pressler 11 Brownsburg (IN) 9 18:23.4 PR 112.1
88 Corwyn Barrows 10 Westfield (NJ) 8 18:24.1 PR 112.0
89 Matthew Beard 11 Fishers (IN) 18 18:24.1 SR 112.0
90 Ty Conner 10 Westfield (NJ) 9 18:25 PR 112.0
91 John Degan 10 Westfield (NJ) 10 18:26 PR 111.8
92 Jon Rademacher 11 Brownsburg (IN) 10 18:26.5 PR 111.8
93 Grant McMath 12 Westfield (NJ) 11 18:26.6 PR 111.8
94 Luke-Kevin Smith 11 Zionsville (IN) 22 18:28.2 111.6
95 Hunter Striebel 10 Zionsville (IN) 23 18:28.5 PR 111.6
96 Gavin Vessels 11 Hamilton Southeastern (IN) 15 18:30.3 SR 111.4
97 Zach Brown 11 Fishers (IN) 19 18:32.5 SR 111.2
98 Thomas Wallbank 12 Zionsville (IN) 24 18:33.8 PR 111.1
99 Bode Barnes 10 Noblesville (IN) 11 18:33.9 111.0
100 Hunter Sardinas 9 Brownsburg (IN) 11 18:34.5 PR 111.0
101 Evan Leblanc 10 Hamilton Southeastern (IN) 16 18:34.7 PR 111.0
102 James Mehrlich 9 Franklin Central (IN) 8 18:35.7 PR 110.9
103 Aaron Ferkowicz 10 Brownsburg (IN) 12 18:36 PR 110.8
104 Jaxon Curtis 12 Franklin Central (IN) 9 18:36 PR 110.8
105 Jax Scamahorn 10 Hamilton Southeastern (IN) 17 18:36 PR 110.8
106 Zain Baig 10 Avon (IN) 3 18:36.1 PR 110.8 52
107 Trey Chin 10 Brownsburg (IN) 13 18:36.1 PR 110.8
108 Connor Pugh 9 Hamilton Southeastern (IN) 18 18:36.8 PR 110.8
109 Harrison Eneix 11 Hamilton Southeastern (IN) 19 18:37.3 PR 110.7
110 Chris Elliott 12 Franklin Central (IN) 10 18:37.5 PR
111 AJ Neyhart 12 Avon (IN) 4 18:38.7 PR 110.6 53
112 Carter Clendenen 10 Fishers (IN) 20 18:39.4 PR 110.5
113 Chase Childress 10 Avon (IN) 5 18:39.7 PR 110.5 54
114 Joseph Janicek 10 Zionsville (IN) 25 18:40.2 110.4
115 Andrew Schonlau 9 Zionsville (IN) 26 18:41.4 PR 110.3
116 Kevin Garcia 10 Avon (IN) 6 18:41.8 PR 110.3 55
117 Carter Miller 10 Zionsville (IN) 27 18:42.3 PR 110.2
118 Cort Haney 11 Avon (IN) 7 18:42.7 PR 110.2 56
119 Tristan Ball 11 Brownsburg (IN) 14 18:43.8 SR 110.1
120 Evan Shupe 12 Westfield (NJ) 12 18:44.7 110.0
121 Michael Bishop 11 Westfield (NJ) 13 18:46.8 PR 109.8
122 Tituoan Catier 11 Brownsburg (IN) 15 18:46.8 PR 109.8
123 Brady Shoffner 9 Noblesville (IN) 12 18:47.4 PR 109.7
124 Elijah Cluff 9 Hamilton Southeastern (IN) 20 18:52.9 PR 109.2
125 Noah Armitage 11 Westfield (NJ) 14 18:53.6 PR 109.1
126 Owen Dilley 9 Westfield (NJ) 15 18:55.2 109.0
127 Tyler Schiesser 12 Fishers (IN) 21 18:56 108.9
128 Gibson Helmreich 11 Hamilton Southeastern (IN) 21 18:57.4 PR 108.8
129 Austin Hosier-Hartman 12 Fishers (IN) 22 18:57.7 PR 108.7
130 Jonathan (Jack) Hargreaves 11 Zionsville (IN) 28 18:58 PR 108.7
131 Aidan Shiveley 11 Fishers (IN) 23 19:00.4 SR 108.5
132 Sam Randle 12 Zionsville (IN) 29 19:05.9 108.0
133 Aliou Jalloh 10 Brownsburg (IN) 16 19:08.2 PR 107.7
134 William Weber 9 Zionsville (IN) 30 19:10.8 107.5
135 Nick Albrecht 11 Zionsville (IN) 31 19:10.9 PR 107.5
136 Reece Kepner 12 Hamilton Southeastern (IN) 22 19:12 PR 107.4
137 Collin King 12 Zionsville (IN) 32 19:12.1 PR 107.4
138 Malaki Fraser 10 Noblesville (IN) 13 19:13.1 107.3
139 Conner Schelle 10 Noblesville (IN) 14 19:13.2 SR 107.3
140 Cooper Fulayter 10 Avon (IN) 8 19:13.7 107.2
141 Carson Vernon 11 Hamilton Southeastern (IN) 23 19:14.9 SR 107.1
142 Turner Case 11 Franklin Central (IN) 11 19:15 PR 107.1
143 Alex Harden 9 Noblesville (IN) 15 19:16.3 PR 107.0
144 Reis Wood 10 Fishers (IN) 24 19:17.1 PR 106.9
145 Grant Warnock 9 Noblesville (IN) 16 19:18 106.8
146 Mason Lapp 9 Fishers (IN) 25 19:18.8 PR 106.8
147 Jace Lee 9 Westfield (NJ) 16 19:19.1 PR 106.7
148 Hudson Ayers 9 Fishers (IN) 26 19:20 PR 106.6
149 Luke Petre 12 Brownsburg (IN) 17 19:20.1 PR 106.6
150 Derek Schrum 11 Avon (IN) 9 19:21.1 PR 106.5
151 Jacob Enz 9 Avon (IN) 10 19:21.1 106.5
152 Cade Copeland 9 Brownsburg (IN) 18 19:21.6 PR 106.5
153 Logan Ford 11 Avon (IN) 11 19:23.5 106.3
154 Gavin Singer 10 Avon (IN) 12 19:24.3 PR 106.2
155 Andrew Rivera 9 Noblesville (IN) 17 19:25.4 PR 106.2
156 Sam Ostrander 10 Zionsville (IN) 33 19:26.1 106.1
157 Benjamin Skiles 12 Brownsburg (IN) 19 19:26.8 PR 106.0
158 Henry Wasemann 12 Noblesville (IN) 18 19:28.4 SR 105.9
159 Noah Kline 10 Hamilton Southeastern (IN) 24 19:31.4 105.6
160 Cole Herring 9 Westfield (NJ) 17 19:34 PR 105.4
161 Ben Kern 12 Noblesville (IN) 19 19:36.8 PR 105.1
162 Josh Lasley 9 Franklin Central (IN) 12 19:37.3 105.1
163 Sam Elliott 9 Hamilton Southeastern (IN) 25 19:37.4 PR 105.1
164 Sayne Jeong 12 Noblesville (IN) 20 19:38.9 SR 104.9
165 Jayden Christensen 9 Avon (IN) 13 19:41.2 PR 104.7
166 Lane Norris 10 Westfield (NJ) 18 19:42.9 SR 104.6
167 Cade Showalter 9 Brownsburg (IN) 20 19:44.8 PR 104.4
168 Ben Norris 9 Noblesville (IN) 21 19:47 PR 104.2
169 Akshansh Nandan 9 Zionsville (IN) 34 19:47.3 PR 104.2
170 Grant Poehlein 9 Zionsville (IN) 35 19:47.6 PR 104.2
171 Evan Davidson 9 Hamilton Southeastern (IN) 26 19:49.1 PR 104.0
172 Wyatt Gamble 11 Avon (IN) 14 19:49.5 PR 104.0
173 Will Bowen 12 Zionsville (IN) 36 19:49.8 104.0
174 Kaden Jones 10 Hamilton Southeastern (IN) 27 19:51.8 PR 103.8
175 Quinn Stauffacher 11 Zionsville (IN) 37 19:52.2 103.8
176 Cooper Tharp 11 Franklin Central (IN) 13 19:53.3 PR 103.7
177 Tyler Sepanski 11 Zionsville (IN) 38 19:54.1 SR 103.6
178 Graham Hoffman 9 Westfield (NJ) 19 19:54.4 PR 103.6
179 Aiden Larson 11 Noblesville (IN) 22 19:55.2 SR 103.5
180 Kasen Pepperman 10 Noblesville (IN) 23 19:55.7 SR 103.5
181 Colton Mayfield 11 Brownsburg (IN) 21 19:56 PR 103.4
182 Braeden Dewes 10 Westfield (NJ) 20 19:56.5 PR 103.4
183 Nick Tomaszewski 11 Westfield (NJ) 21 19:57 PR 103.3
184 Caleb Lotter 11 Fishers (IN) 27 19:58 PR 103.3
185 Abe Bergeson 12 Zionsville (IN) 39 19:58.1 SR 103.2
186 Jeremy Smits 10 Westfield (NJ) 22 19:59.5 PR 103.1
187 Weston Tweddell 12 Brownsburg (IN) 22 20:02.1 PR 102.9
188 Tianle Liang 9 Zionsville (IN) 40 20:04.6 PR 102.7
189 andrew Terry 12 Noblesville (IN) 24 20:05.4 102.6
190 Ben Heck 9 Franklin Central (IN) 14 20:09.1 PR 102.3
191 Noah Lone 11 Brownsburg (IN) 23 20:10.3 PR 102.2
192 Derek Moskowitz 11 Westfield (NJ) 23 20:10.3 PR 102.2
193 John Kokoska 9 Hamilton Southeastern (IN) 28 20:11.6 PR 102.1
194 Soren Baker 10 Westfield (NJ) 24 20:11.6 PR 102.1
195 Adriel Klopper 10 Zionsville (IN) 41 20:13 PR 102.0
196 Joey Justice 9 Hamilton Southeastern (IN) 29 20:15.4 PR 101.8
197 Truett Weber 9 Zionsville (IN) 42 20:15.8 101.8
198 Parker Smoot 9 Westfield (NJ) 25 20:17.4 PR 101.6
199 Aiden Caddell 10 Noblesville (IN) 25 20:18.3 PR 101.5
200 Fred Wittman 9 Avon (IN) 15 20:18.7 PR 101.5
201 Eli LaRosa 9 Westfield (NJ) 26 20:19 PR 101.5
202 Sawyer Leming 11 Brownsburg (IN) 24 20:19.3 PR 101.5
203 Tyler Grimes 10 Hamilton Southeastern (IN) 30 20:19.6 PR 101.4
204 Frank Phillips 10 Westfield (NJ) 27 20:19.9 PR 101.4
205 Troy Davis 12 Franklin Central (IN) 15 20:20.3 SR 101.4
206 Riley Jackson 10 Zionsville (IN) 43 20:20.6 PR 101.3
207 Charlie Kimmel 9 Noblesville (IN) 26 20:21 PR 101.3
208 Noah Flynn 11 Westfield (NJ) 28 20:24.8 PR 101.0
209 Julian Denney 10 Franklin Central (IN) 16 20:26.4 PR 100.9
210 John Thorne 10 Brownsburg (IN) 25 20:26.5 PR 100.9
211 Will Graves 11 Avon (IN) 16 20:26.9 PR 100.8
212 Robert Fisher 9 Zionsville (IN) 44 20:27.6 100.8
213 Drake Danubio 9 Westfield (NJ) 29 20:30.8 PR 100.5
214 Heechan Jung 10 Avon (IN) 17 20:34.4 PR 100.2
215 Jackson Muniz 10 Zionsville (IN) 45 20:36.3 PR 100.1
216 Mitch McCoy 10 Franklin Central (IN) 17 20:39.4 PR 99.8
217 Sam Snow 9 Franklin Central (IN) 18 20:41.3 PR 99.7
218 Connor Seagrave 11 Westfield (NJ) 30 20:42.4 PR 99.6
219 Max Arnold 10 Noblesville (IN) 27 20:42.5 99.6
220 Elijah Crowe 9 Avon (IN) 18 20:42.7 99.5
221 Stefan Sasic 10 Zionsville (IN) 46 20:44 99.4
222 George Cummings 10 Westfield (NJ) 31 20:46.7 PR 99.2
223 Seth Davis 12 Zionsville (IN) 47 20:47.3 SR 99.2
224 Matthew Martinez 10 Westfield (NJ) 32 20:54 PR 98.7
225 Landon King 12 Westfield (NJ) 33 20:56.3 PR 98.5
226 Mason Jackson 12 Noblesville (IN) 28 20:56.8 SR 98.4
227 Joaquin Adair 11 Avon (IN) 19 20:57.1 PR 98.4
228 Conor Dueweke 10 Brownsburg (IN) 26 20:58.2 PR 98.3
229 Eli Germann 9 Fishers (IN) 28 21:00.1 PR 98.2
230 Trey Feder 9 Noblesville (IN) 29 21:00.2 PR 98.2
231 William Coffman 12 Franklin Central (IN) 19 21:01.4 SR 98.1
232 Max Emrich 11 Zionsville (IN) 48 21:03 PR 97.9
233 Jose Flores 12 Noblesville (IN) 30 21:04.7 PR 97.8
234 Pierce Glodowski 10 Westfield (NJ) 34 21:05.2 PR 97.8
235 Michael Mott 9 Hamilton Southeastern (IN) 31 21:06.8 PR 97.7
236 Quinn Myers 9 Hamilton Southeastern (IN) 32 21:10.5 PR 97.4
237 Eliot Soderberg 12 Noblesville (IN) 31 21:11.5 PR 97.3
238 Sawyer Owens 9 Franklin Central (IN) 20 21:12.1 PR 97.2
239 Henry Beckman 10 Zionsville (IN) 49 21:15 SR 97.0
240 Landon Morales 11 Avon (IN) 20 21:15.3 PR 97.0
241 Josh McGraw 9 Noblesville (IN) 32 21:16.7 96.9
242 Connor Kubik 11 Westfield (NJ) 35 21:16.8 PR 96.9
243 Sam Wing 9 Fishers (IN) 29 21:19.3 PR 96.7
244 Blake Smith 12 Noblesville (IN) 33 21:22.1 SR 96.5
245 Peter Harrington 11 Westfield (NJ) 36 21:22.3 PR 96.5
246 Nathaniel Gambrall 11 Avon (IN) 21 21:26.2 PR 96.2
247 David Mingus 11 Zionsville (IN) 50 21:30.5 SR 95.9
248 Drew Taylor 9 Westfield (NJ) 37 21:33.5 PR 95.6
249 Cameron Shirvinski 9 Fishers (IN) 30 21:34.8 PR 95.5
250 Patrick McCluskey 9 Brownsburg (IN) 27 21:35.2 PR 95.5
251 Joel Beeler 10 Avon (IN) 22 21:40.9 SR 95.1
252 Brad Bishop 11 Westfield (NJ) 38 21:48.9 SR 94.5
253 Graham Weier 9 Hamilton Southeastern (IN) 33 21:50.4 PR 94.4
254 Aden Yeager 9 Noblesville (IN) 34 21:50.6 PR 94.4
255 Nicholas Obuch 11 Noblesville (IN) 35 21:58.6 PR 93.8
256 Avery Ogden 9 Noblesville (IN) 36 22:03.7 PR 93.5
257 Caleb Rasche 9 Westfield (NJ) 39 22:06.8 93.2
258 Charlie Rosa 9 Brownsburg (IN) 28 22:08.2 PR 93.1
259 Spencer Galyen 9 Brownsburg (IN) 29 22:11.7 PR 92.9
260 Will Sears 12 Brownsburg (IN) 30 22:14.6 PR 92.7
261 Ryan Clark 10 Noblesville (IN) 37 22:20.3 92.3
262 Elijah Kellar 10 Zionsville (IN) 51 22:22 PR 92.2
263 Dominick Store 9 Avon (IN) 23 22:25.8 91.9
264 Leander Quiroz 12 Fishers (IN) 31 22:28.8 SR 91.7
265 Matthew Snider 9 Noblesville (IN) 38 22:30.8 PR 91.6
266 Emery Plowman 10 Avon (IN) 24 22:32.8 SR 91.4
267 Brayden Purvis 11 Brownsburg (IN) 31 22:39.2 SR 91.0
268 Callen Johnson 9 Hamilton Southeastern (IN) 34 22:53.1 PR 90.1
269 Brady Sheean 9 Avon (IN) 25 22:53.3 PR 90.1
270 Maxwill Dunn 11 Avon (IN) 26 23:15.8 SR 88.6
271 Colt Weaver 9 Noblesville (IN) 39 23:18 88.5
272 Tyler Ellis 9 Westfield (NJ) 40 23:19.5 PR 88.4
273 Sawyer Berendes 10 Zionsville (IN) 52 23:32.5 PR 87.6
274 Mahlon Kalaba 10 Westfield (NJ) 41 23:36.1 PR 87.4
275 Michael Quirke 10 Westfield (NJ) 42 23:46.4 PR 86.7
276 Evan McClary 12 Fishers (IN) 32 23:47.3 86.7
277 Beckett Allen 9 Brownsburg (IN) 32 23:59.2 PR 86.0
278 Elijah Lane 11 Westfield (NJ) 43 26:14.6 PR 78.6
279 Blake Matas 10 Hamilton Southeastern (IN) 35 26:30.3 PR 77.8
280 Zyon Hoskins 11 Hamilton Southeastern (IN) 36 26:39.6 PR 77.3
281 Elliot Six 9 Fishers (IN) 33 27:04.1 76.2
282 Christopher Arceo 9 Avon (IN) 27 28:42.5 71.8
283 Sam Eszenyi 11 Avon (IN) 28 31:10.6 PR 66.1
Something wrong on this page? Report it →